createdAt,value
2023-09-26T00:00:52.942Z,8.20
2023-09-26T00:03:47.404Z,7.90
2023-09-26T00:06:41.476Z,11.40
2023-09-26T00:09:36.549Z,8.60
2023-09-26T00:12:30.844Z,8.30
2023-09-26T00:15:24.944Z,8.00
2023-09-26T00:18:19.458Z,7.70
2023-09-26T00:21:13.525Z,7.80
2023-09-26T00:24:08.261Z,7.70
2023-09-26T00:27:02.463Z,8.00
2023-09-26T00:29:57.122Z,7.70
2023-09-26T00:32:51.085Z,7.40
2023-09-26T00:35:45.248Z,7.40
2023-09-26T00:38:39.393Z,7.60
2023-09-26T00:41:34.557Z,7.80
2023-09-26T00:44:29.107Z,7.60
2023-09-26T00:47:23.307Z,7.50
2023-09-26T00:50:17.658Z,7.70
2023-09-26T00:53:11.836Z,7.70
2023-09-26T00:56:03.117Z,9.80
2023-09-26T00:58:57.345Z,8.70
2023-09-26T01:01:52.366Z,7.80
2023-09-26T01:04:46.693Z,7.90
2023-09-26T01:07:42.160Z,8.20
2023-09-26T01:10:37.601Z,7.90
2023-09-26T01:13:31.691Z,7.20
2023-09-26T01:16:25.937Z,7.00
2023-09-26T01:19:20.057Z,7.30
2023-09-26T01:22:35.045Z,8.10
2023-09-26T01:25:29.499Z,6.90
2023-09-26T01:28:23.530Z,7.40
2023-09-26T01:31:17.653Z,7.50
2023-09-26T01:34:12.271Z,7.20
2023-09-26T01:37:06.312Z,7.20
2023-09-26T01:40:00.722Z,7.30
2023-09-26T01:42:54.879Z,6.70
2023-09-26T01:45:49.493Z,6.70
2023-09-26T01:48:43.393Z,7.40
2023-09-26T01:51:37.403Z,7.40
2023-09-26T01:54:31.677Z,7.10
2023-09-26T01:57:26.135Z,7.20
2023-09-26T02:00:21.806Z,7.30
2023-09-26T02:03:15.739Z,7.70
2023-09-26T02:06:10.022Z,7.10
2023-09-26T02:09:05.024Z,7.40
2023-09-26T02:11:59.425Z,7.40
2023-09-26T02:14:54.577Z,7.10
2023-09-26T02:17:48.735Z,6.80
2023-09-26T02:20:42.679Z,7.40
2023-09-26T02:23:37.029Z,8.00
2023-09-26T02:26:31.289Z,7.60
2023-09-26T02:29:25.571Z,7.40
2023-09-26T02:32:19.590Z,7.70
2023-09-26T02:35:17.023Z,7.90
2023-09-26T02:38:11.277Z,7.80
2023-09-26T02:41:05.822Z,7.20
2023-09-26T02:44:00.707Z,7.70
2023-09-26T02:46:54.762Z,7.80
2023-09-26T02:49:49.454Z,7.60
2023-09-26T02:52:46.056Z,7.60
2023-09-26T02:55:44.514Z,7.60
2023-09-26T02:58:38.523Z,7.90
2023-09-26T03:01:34.100Z,8.20
2023-09-26T03:04:28.464Z,7.50
2023-09-26T03:07:22.758Z,8.40
2023-09-26T03:10:17.757Z,8.40
2023-09-26T03:13:12.158Z,7.90
2023-09-26T03:16:10.060Z,8.50
2023-09-26T03:19:04.530Z,8.30
2023-09-26T03:21:58.812Z,8.40
2023-09-26T03:24:52.908Z,8.40
2023-09-26T03:27:49.672Z,8.90
2023-09-26T03:30:47.829Z,8.70
2023-09-26T03:33:42.321Z,8.90
2023-09-26T03:36:36.168Z,8.90
2023-09-26T03:39:30.129Z,8.60
2023-09-26T03:42:27.148Z,9.30
2023-09-26T03:45:21.360Z,9.30
2023-09-26T03:48:15.644Z,9.40
2023-09-26T03:51:16.770Z,8.80
2023-09-26T03:54:10.812Z,8.60
2023-09-26T03:57:05.670Z,9.60
2023-09-26T03:59:59.687Z,9.30
2023-09-26T04:02:55.648Z,9.20
2023-09-26T04:06:02.802Z,9.60
2023-09-26T04:08:56.820Z,8.50
2023-09-26T04:11:51.453Z,9.30
2023-09-26T04:14:45.556Z,7.80
2023-09-26T04:17:39.998Z,8.80
2023-09-26T04:20:38.350Z,8.70
2023-09-26T04:23:32.991Z,9.50
2023-09-26T04:26:28.560Z,8.50
2023-09-26T04:29:23.077Z,8.90
2023-09-26T04:32:17.109Z,7.50
2023-09-26T04:35:12.395Z,8.30
2023-09-26T04:38:07.117Z,8.00
2023-09-26T04:41:04.729Z,8.20
2023-09-26T04:43:59.054Z,9.00
2023-09-26T04:46:53.328Z,8.20
2023-09-26T04:49:47.836Z,8.60
2023-09-26T04:52:41.804Z,8.60
2023-09-26T04:55:37.750Z,7.80
2023-09-26T04:58:33.688Z,8.40
2023-09-26T05:01:27.889Z,7.60
2023-09-26T05:04:22.365Z,7.70
2023-09-26T05:07:17.551Z,8.40
2023-09-26T05:10:13.832Z,7.60
2023-09-26T05:13:08.801Z,7.60
2023-09-26T05:16:02.862Z,8.00
2023-09-26T05:18:57.281Z,7.50
2023-09-26T05:21:51.531Z,8.80
2023-09-26T05:24:45.482Z,8.10
2023-09-26T05:27:40.699Z,8.30
2023-09-26T05:30:37.269Z,8.70
2023-09-26T05:33:31.394Z,8.20
2023-09-26T05:36:25.565Z,8.00
2023-09-26T05:39:20.047Z,7.60
2023-09-26T05:42:14.286Z,7.80
2023-09-26T05:45:12.789Z,8.00
2023-09-26T05:48:07.861Z,7.30
2023-09-26T05:51:06.078Z,7.60
2023-09-26T05:54:00.848Z,7.70
2023-09-26T05:56:54.850Z,8.00
2023-09-26T05:59:49.281Z,7.20
2023-09-26T06:02:44.067Z,7.60
2023-09-26T06:05:40.761Z,8.00
2023-09-26T06:08:35.595Z,7.60
2023-09-26T06:11:30.261Z,7.30
2023-09-26T06:14:26.766Z,7.40
2023-09-26T06:17:21.384Z,7.60
2023-09-26T06:20:16.968Z,7.30
2023-09-26T06:23:11.582Z,8.10
2023-09-26T06:26:05.876Z,7.30
2023-09-26T06:29:00.402Z,7.30
2023-09-26T06:31:54.402Z,7.00
2023-09-26T06:34:50.611Z,7.70
2023-09-26T06:37:46.247Z,8.40
2023-09-26T06:40:40.715Z,8.50
2023-09-26T06:43:35.178Z,8.00
2023-09-26T06:46:30.296Z,8.20
2023-09-26T06:49:24.583Z,7.70
2023-09-26T06:52:18.895Z,8.20
2023-09-26T06:55:13.941Z,10.00
2023-09-26T06:58:08.957Z,11.50
2023-09-26T07:01:03.204Z,9.50
2023-09-26T07:03:57.664Z,8.00
2023-09-26T07:06:51.882Z,9.30
2023-09-26T07:09:46.175Z,7.80
2023-09-26T07:12:41.239Z,8.00
2023-09-26T07:15:40.140Z,7.60
2023-09-26T07:18:34.951Z,8.20
2023-09-26T07:21:29.136Z,7.90
2023-09-26T07:24:28.883Z,8.20
2023-09-26T07:27:29.291Z,7.40
2023-09-26T07:30:23.721Z,7.70
2023-09-26T07:33:18.313Z,8.50
2023-09-26T07:36:13.201Z,9.10
2023-09-26T07:39:09.410Z,8.20
2023-09-26T07:42:04.746Z,8.60
2023-09-26T07:45:01.788Z,8.50
2023-09-26T07:47:56.110Z,8.00
2023-09-26T07:50:51.073Z,8.00
2023-09-26T07:53:45.572Z,8.20
2023-09-26T07:56:40.007Z,8.00
2023-09-26T07:59:35.321Z,8.50
2023-09-26T08:02:29.626Z,8.70
2023-09-26T08:05:23.835Z,8.90
2023-09-26T08:08:18.242Z,9.00
2023-09-26T08:11:14.165Z,8.80
2023-09-26T08:14:08.746Z,8.30
2023-09-26T08:17:03.156Z,8.00
2023-09-26T08:19:57.151Z,8.60
2023-09-26T08:22:51.198Z,8.70
2023-09-26T08:25:45.173Z,7.60
2023-09-26T08:28:39.319Z,7.70
2023-09-26T08:31:33.892Z,8.70
2023-09-26T08:34:28.205Z,9.40
2023-09-26T08:37:22.564Z,9.20
2023-09-26T08:40:17.795Z,8.70
2023-09-26T08:43:14.352Z,9.60
2023-09-26T08:46:09.388Z,9.60
2023-09-26T08:49:07.160Z,8.70
2023-09-26T08:52:02.078Z,9.50
2023-09-26T08:54:56.320Z,14.00
2023-09-26T08:57:52.932Z,11.90
2023-09-26T09:00:47.713Z,11.80
2023-09-26T09:03:42.809Z,11.90
2023-09-26T09:06:36.967Z,10.60
2023-09-26T09:09:31.234Z,10.10
2023-09-26T09:12:27.550Z,9.80
2023-09-26T09:15:29.438Z,10.10
2023-09-26T09:18:34.492Z,9.30
2023-09-26T09:21:32.291Z,9.60
2023-09-26T09:24:56.446Z,9.10
2023-09-26T09:27:52.725Z,8.80
2023-09-26T09:30:47.429Z,8.80
2023-09-26T09:33:45.252Z,8.70
2023-09-26T09:36:40.904Z,8.60
2023-09-26T09:39:36.639Z,8.20
2023-09-26T09:42:25.992Z,8.50
2023-09-26T09:45:20.634Z,8.80
2023-09-26T09:48:15.781Z,8.80
2023-09-26T09:51:13.260Z,8.20
2023-09-26T09:57:08.686Z,8.30
2023-09-26T10:00:03.749Z,8.10
2023-09-26T10:03:02.103Z,8.30
2023-09-26T10:05:58.264Z,8.70
2023-09-26T10:08:55.104Z,8.20
2023-09-26T10:11:49.982Z,7.80
2023-09-26T10:14:44.039Z,7.90
2023-09-26T10:17:38.063Z,8.10
2023-09-26T10:20:51.663Z,9.50
2023-09-26T10:24:21.027Z,9.10
2023-09-26T10:27:27.408Z,8.60
2023-09-26T10:30:23.988Z,9.10
2023-09-26T10:33:36.724Z,9.90
2023-09-26T10:36:33.593Z,9.20
2023-09-26T10:39:40.741Z,9.20
2023-09-26T10:45:33.550Z,8.80
2023-09-26T10:48:27.465Z,8.70
2023-09-26T10:51:21.876Z,8.50
2023-09-26T10:54:15.823Z,8.90
2023-09-26T10:57:10.237Z,8.70
2023-09-26T11:00:13.345Z,7.60
2023-09-26T11:03:08.721Z,7.40
2023-09-26T11:05:53.764Z,7.80
2023-09-26T11:08:49.611Z,7.40
2023-09-26T11:11:44.467Z,7.30
2023-09-26T11:14:38.465Z,7.30
2023-09-26T11:17:33.636Z,6.70
2023-09-26T11:20:31.089Z,7.20
2023-09-26T11:23:40.254Z,7.50
2023-09-26T11:26:34.231Z,7.00
2023-09-26T11:29:29.141Z,7.00
2023-09-26T11:32:23.276Z,7.20
2023-09-26T11:35:18.620Z,6.50
2023-09-26T11:38:12.503Z,6.80
2023-09-26T11:41:06.737Z,7.30
2023-09-26T11:44:21.005Z,6.80
2023-09-26T11:47:15.158Z,6.70
2023-09-26T11:50:11.704Z,7.00
2023-09-26T11:53:06.307Z,6.50
2023-09-26T11:56:01.223Z,6.20
2023-09-26T11:58:55.069Z,6.30
2023-09-26T12:01:49.308Z,6.30
2023-09-26T12:04:44.819Z,6.40
2023-09-26T12:07:38.842Z,6.40
2023-09-26T12:10:32.757Z,6.60
2023-09-26T12:13:26.617Z,6.20
2023-09-26T12:16:21.367Z,5.90
2023-09-26T12:19:15.217Z,5.60
2023-09-26T12:22:09.355Z,5.40
2023-09-26T12:25:03.437Z,5.50
2023-09-26T12:27:57.538Z,5.40
2023-09-26T12:30:51.781Z,5.50
2023-09-26T12:33:45.752Z,5.10
2023-09-26T12:36:39.992Z,5.40
2023-09-26T12:39:35.252Z,5.00
2023-09-26T12:42:29.569Z,5.40
2023-09-26T12:45:23.640Z,5.20
2023-09-26T12:48:17.571Z,5.30
2023-09-26T12:51:22.135Z,5.70
2023-09-26T12:54:19.175Z,5.60
2023-09-26T12:57:15.900Z,5.60
2023-09-26T13:00:12.750Z,5.10
2023-09-26T13:03:08.262Z,5.20
2023-09-26T13:06:02.322Z,5.70
2023-09-26T13:08:56.383Z,5.90
2023-09-26T13:11:50.163Z,5.80
2023-09-26T13:14:44.044Z,5.40
2023-09-26T13:17:38.043Z,5.30
2023-09-26T13:20:18.912Z,5.60
2023-09-26T13:22:54.699Z,5.80
2023-09-26T13:25:48.599Z,6.00
2023-09-26T13:28:42.443Z,5.60
2023-09-26T13:31:38.241Z,5.10
2023-09-26T13:34:32.617Z,5.30
2023-09-26T13:37:26.446Z,5.60
2023-09-26T13:40:05.811Z,5.90
2023-09-26T13:42:48.215Z,5.90
2023-09-26T13:45:22.255Z,6.20
2023-09-26T13:48:16.165Z,5.90
2023-09-26T13:51:06.787Z,5.40
2023-09-26T13:54:00.949Z,5.70
2023-09-26T13:56:55.035Z,6.10
2023-09-26T13:59:50.701Z,6.20
2023-09-26T14:02:44.665Z,6.40
2023-09-26T14:05:38.722Z,5.60
2023-09-26T14:08:33.836Z,5.90
2023-09-26T14:11:28.705Z,6.10
2023-09-26T14:14:22.664Z,6.40
2023-09-26T14:17:16.509Z,6.20
2023-09-26T14:20:12.376Z,6.30
2023-09-26T14:23:07.211Z,6.30
2023-09-26T14:26:01.329Z,6.20
2023-09-26T14:28:59.984Z,6.50
2023-09-26T14:31:53.880Z,6.30
2023-09-26T14:34:47.831Z,6.90
2023-09-26T14:37:42.138Z,6.80
2023-09-26T14:40:36.211Z,6.50
2023-09-26T14:43:30.097Z,6.60
2023-09-26T14:46:24.226Z,7.30
2023-09-26T14:49:18.042Z,7.80
2023-09-26T14:52:11.929Z,7.60
2023-09-26T14:55:06.949Z,7.40
2023-09-26T14:58:01.155Z,7.70
2023-09-26T15:00:54.954Z,6.60
2023-09-26T15:03:48.885Z,7.60
2023-09-26T15:06:42.822Z,7.40
2023-09-26T15:09:36.735Z,7.30
2023-09-26T15:12:32.899Z,6.90
2023-09-26T15:15:29.317Z,7.20
2023-09-26T15:18:23.427Z,6.90
2023-09-26T15:21:17.193Z,6.50
2023-09-26T15:24:11.662Z,6.80
2023-09-26T15:27:05.593Z,8.30
2023-09-26T15:29:51.021Z,7.30
2023-09-26T15:32:45.004Z,7.30
2023-09-26T15:35:41.956Z,7.20
2023-09-26T15:38:36.118Z,7.70
2023-09-26T15:41:30.158Z,7.90
2023-09-26T15:44:24.329Z,8.00
2023-09-26T15:47:18.267Z,7.70
2023-09-26T15:50:14.728Z,7.90
2023-09-26T15:53:09.138Z,8.20
2023-09-26T15:56:03.047Z,8.50
2023-09-26T15:58:57.096Z,7.40
2023-09-26T16:01:51.654Z,8.40
2023-09-26T16:04:46.386Z,8.10
2023-09-26T16:07:40.593Z,8.90
2023-09-26T16:10:34.543Z,8.30
2023-09-26T16:13:29.046Z,7.80
2023-09-26T16:16:23.022Z,8.80
2023-09-26T16:19:18.287Z,7.80
2023-09-26T16:22:13.054Z,8.20
2023-09-26T16:25:08.346Z,8.60
2023-09-26T16:27:50.947Z,8.40
2023-09-26T16:30:47.493Z,8.20
2023-09-26T16:33:41.541Z,8.90
2023-09-26T16:36:35.464Z,8.70
2023-09-26T16:39:29.624Z,8.90
2023-09-26T16:42:23.497Z,8.50
2023-09-26T16:45:17.472Z,8.70
2023-09-26T16:48:11.920Z,8.80
2023-09-26T16:51:06.739Z,9.00
2023-09-26T16:54:01.971Z,8.40
2023-09-26T16:56:56.026Z,9.00
2023-09-26T16:59:53.460Z,8.40
2023-09-26T17:02:47.827Z,9.20
2023-09-26T17:05:43.287Z,9.00
2023-09-26T17:08:37.504Z,8.50
2023-09-26T17:11:32.325Z,9.20
2023-09-26T17:14:28.303Z,9.90
2023-09-26T17:17:22.408Z,9.50
2023-09-26T17:20:16.692Z,9.40
2023-09-26T17:23:11.386Z,9.30
2023-09-26T17:26:05.601Z,10.10
2023-09-26T17:28:59.482Z,10.00
2023-09-26T17:31:54.185Z,9.40
2023-09-26T17:34:50.516Z,10.40
2023-09-26T17:37:44.611Z,10.40
2023-09-26T17:40:38.869Z,10.00
2023-09-26T17:43:32.827Z,10.60
2023-09-26T17:46:27.329Z,9.60
2023-09-26T17:49:21.309Z,10.10
2023-09-26T17:52:15.637Z,9.20
2023-09-26T17:55:11.381Z,10.30
2023-09-26T17:58:05.312Z,9.30
2023-09-26T18:00:59.507Z,10.00
2023-09-26T18:03:53.703Z,9.90
2023-09-26T18:06:47.904Z,10.10
2023-09-26T18:09:42.595Z,10.30
2023-09-26T18:12:36.524Z,9.90
2023-09-26T18:15:30.594Z,10.40
2023-09-26T18:18:29.116Z,9.20
2023-09-26T18:21:23.136Z,9.50
2023-09-26T18:24:17.552Z,9.30
2023-09-26T18:27:11.774Z,10.40
2023-09-26T18:30:06.597Z,10.40
2023-09-26T18:33:00.526Z,11.50
2023-09-26T18:35:54.939Z,9.80
2023-09-26T18:38:48.868Z,10.30
2023-09-26T18:41:43.025Z,10.60
2023-09-26T18:44:38.654Z,11.00
2023-09-26T18:47:33.232Z,10.60
2023-09-26T18:50:27.617Z,10.70
2023-09-26T18:53:22.437Z,11.00
2023-09-26T18:56:01.285Z,9.70
2023-09-26T18:58:55.703Z,10.90
2023-09-26T19:01:50.927Z,10.30
2023-09-26T19:04:46.354Z,9.40
2023-09-26T19:07:41.101Z,10.70
2023-09-26T19:10:35.182Z,10.60
2023-09-26T19:13:29.088Z,11.10
2023-09-26T19:16:23.086Z,11.10
2023-09-26T19:19:16.943Z,10.90
2023-09-26T19:22:10.821Z,9.90
2023-09-26T19:24:55.039Z,11.00
2023-09-26T19:27:49.067Z,11.10
2023-09-26T19:30:46.167Z,11.70
2023-09-26T19:33:39.991Z,11.70
2023-09-26T19:36:34.393Z,11.00
2023-09-26T19:39:28.705Z,10.60
2023-09-26T19:42:24.084Z,10.20
2023-09-26T19:45:19.296Z,10.90
2023-09-26T19:48:14.784Z,11.10
2023-09-26T19:51:05.521Z,10.50
2023-09-26T19:54:00.184Z,10.80
2023-09-26T19:56:58.768Z,10.00
2023-09-26T19:59:36.092Z,10.10
2023-09-26T20:02:31.327Z,10.60
2023-09-26T20:05:26.007Z,10.50
2023-09-26T20:08:20.288Z,10.60
2023-09-26T20:11:14.368Z,11.00
2023-09-26T20:14:08.521Z,10.80
2023-09-26T20:17:03.001Z,10.20
2023-09-26T20:19:56.961Z,11.70
2023-09-26T20:22:51.415Z,11.30
2023-09-26T20:25:45.787Z,10.70
2023-09-26T20:28:40.381Z,10.90
2023-09-26T20:31:34.783Z,11.30
2023-09-26T20:34:30.016Z,10.60
2023-09-26T20:37:24.313Z,10.70
2023-09-26T20:40:18.422Z,10.70
2023-09-26T20:43:12.342Z,11.00
2023-09-26T20:46:06.619Z,10.90
2023-09-26T20:49:00.683Z,11.40
2023-09-26T20:51:54.656Z,11.10
2023-09-26T20:54:49.105Z,10.60
2023-09-26T20:57:43.685Z,11.30
2023-09-26T21:00:39.049Z,10.50
2023-09-26T21:03:33.234Z,10.80
2023-09-26T21:06:27.836Z,10.60
2023-09-26T21:09:22.106Z,11.10
2023-09-26T21:12:15.930Z,11.90
2023-09-26T21:15:11.689Z,12.90
2023-09-26T21:18:05.845Z,12.10
2023-09-26T21:20:59.953Z,11.80
2023-09-26T21:23:54.537Z,11.30
2023-09-26T21:26:48.727Z,11.70
2023-09-26T21:29:42.944Z,11.40
2023-09-26T21:32:36.958Z,11.50
2023-09-26T21:35:31.245Z,11.80
2023-09-26T21:38:26.077Z,11.50
2023-09-26T21:41:20.248Z,11.60
2023-09-26T21:44:14.689Z,12.40
2023-09-26T21:47:09.113Z,11.30
2023-09-26T21:50:05.148Z,12.50
2023-09-26T21:53:00.012Z,11.40
2023-09-26T21:55:54.818Z,11.90
2023-09-26T21:58:49.063Z,11.50
2023-09-26T22:01:43.572Z,11.20
2023-09-26T22:04:38.509Z,11.40
2023-09-26T22:07:17.687Z,10.80
2023-09-26T22:10:13.202Z,10.80
2023-09-26T22:13:07.695Z,10.70
2023-09-26T22:16:01.957Z,10.30
2023-09-26T22:18:56.045Z,10.20
2023-09-26T22:21:51.749Z,10.80
2023-09-26T22:24:45.903Z,11.10
2023-09-26T22:27:40.283Z,10.30
2023-09-26T22:30:35.576Z,10.40
2023-09-26T22:33:29.680Z,11.60
2023-09-26T22:36:24.765Z,11.20
2023-09-26T22:39:19.811Z,10.50
2023-09-26T22:42:14.146Z,11.00
2023-09-26T22:44:52.380Z,10.70
2023-09-26T22:47:46.538Z,10.30
2023-09-26T22:50:40.648Z,10.30
2023-09-26T22:53:34.817Z,10.70
2023-09-26T22:56:28.873Z,10.00
2023-09-26T22:59:25.463Z,10.90
2023-09-26T23:02:19.513Z,9.50
2023-09-26T23:05:13.961Z,10.70
2023-09-26T23:08:09.301Z,9.90
2023-09-26T23:11:03.668Z,10.30
2023-09-26T23:13:58.052Z,10.80
2023-09-26T23:16:52.027Z,10.50
2023-09-26T23:19:45.975Z,9.60
2023-09-26T23:22:40.609Z,10.30
2023-09-26T23:25:35.373Z,10.60
2023-09-26T23:28:29.811Z,10.60
2023-09-26T23:31:24.611Z,10.90
2023-09-26T23:34:19.038Z,10.20
2023-09-26T23:37:13.135Z,9.70
2023-09-26T23:40:10.890Z,10.10
2023-09-26T23:43:05.608Z,10.60
2023-09-26T23:46:00.179Z,9.30
2023-09-26T23:48:55.203Z,9.70
2023-09-26T23:51:51.126Z,9.50
2023-09-26T23:54:45.622Z,9.20
2023-09-26T23:57:40.137Z,9.70
